createdAt,value
2022-08-11T00:00:39.542Z,1012.04
2022-08-11T00:01:39.534Z,1012.02
2022-08-11T00:02:39.827Z,1011.98
2022-08-11T00:03:43.411Z,1012.01
2022-08-11T00:04:39.498Z,1012.03
2022-08-11T00:05:39.479Z,1012.01
2022-08-11T00:06:39.467Z,1012.02
2022-08-11T00:07:39.448Z,1012.01
2022-08-11T00:08:39.434Z,1011.98
2022-08-11T00:09:40.146Z,1011.98
2022-08-11T00:10:39.411Z,1012.02
2022-08-11T00:11:39.398Z,1011.98
2022-08-11T00:12:39.647Z,1011.99
2022-08-11T00:13:39.385Z,1011.99
2022-08-11T00:14:39.360Z,1012.00
2022-08-11T00:15:39.339Z,1011.94
2022-08-11T00:16:39.326Z,1011.93
2022-08-11T00:17:39.322Z,1011.94
2022-08-11T00:18:39.301Z,1011.92
2022-08-11T00:20:12.273Z,1011.94
2022-08-11T00:20:39.289Z,1011.96
2022-08-11T00:22:05.139Z,1011.98
2022-08-11T00:22:39.537Z,1011.96
2022-08-11T00:23:39.239Z,1012.01
2022-08-11T00:24:50.946Z,1011.94
2022-08-11T00:25:39.226Z,1012.01
2022-08-11T00:26:39.197Z,1011.99
2022-08-11T00:27:39.177Z,1012.01
2022-08-11T00:28:39.165Z,1011.93
2022-08-11T00:29:39.155Z,1012.03
2022-08-11T00:30:39.165Z,1012.00
2022-08-11T00:31:39.136Z,1011.97
2022-08-11T00:32:39.265Z,1011.98
2022-08-11T00:33:45.006Z,1012.01
2022-08-11T00:34:39.094Z,1012.01
2022-08-11T00:35:54.595Z,1012.01
2022-08-11T00:36:39.079Z,1011.98
2022-08-11T00:37:39.052Z,1012.00
2022-08-11T00:38:39.047Z,1012.00
2022-08-11T00:39:39.092Z,1011.98
2022-08-11T00:40:39.012Z,1011.99
2022-08-11T00:41:38.996Z,1012.01
2022-08-11T00:42:39.093Z,1012.00
2022-08-11T00:43:38.973Z,1011.98
2022-08-11T00:44:38.979Z,1011.98
2022-08-11T00:45:38.942Z,1011.99
2022-08-11T00:46:38.925Z,1012.00
2022-08-11T00:47:38.921Z,1012.02
2022-08-11T00:48:38.902Z,1012.05
2022-08-11T00:49:38.883Z,1012.02
2022-08-11T00:50:38.891Z,1012.05
2022-08-11T00:52:03.944Z,1012.04
2022-08-11T00:52:39.186Z,1012.04
2022-08-11T00:53:38.829Z,1012.02
2022-08-11T00:54:38.829Z,1012.02
2022-08-11T00:55:38.803Z,1012.02
2022-08-11T00:56:38.794Z,1012.05
2022-08-11T00:57:38.912Z,1012.00
2022-08-11T00:58:38.763Z,1011.99
2022-08-11T00:59:38.755Z,1012.03
2022-08-11T01:00:38.796Z,1011.99
2022-08-11T01:01:38.721Z,1012.00
2022-08-11T01:02:38.858Z,1011.98
2022-08-11T01:03:38.713Z,1011.98
2022-08-11T01:04:38.684Z,1011.99
2022-08-11T01:05:38.684Z,1011.98
2022-08-11T01:06:38.658Z,1011.96
2022-08-11T01:08:01.764Z,1011.95
2022-08-11T01:08:38.646Z,1011.96
2022-08-11T01:09:38.636Z,1011.95
2022-08-11T01:10:38.602Z,1012.00
2022-08-11T01:11:38.593Z,1011.96
2022-08-11T01:12:38.922Z,1011.94
2022-08-11T01:13:38.565Z,1011.96
2022-08-11T01:14:38.551Z,1011.94
2022-08-11T01:15:38.555Z,1011.95
2022-08-11T01:16:38.522Z,1011.94
2022-08-11T01:17:38.526Z,1011.96
2022-08-11T01:18:38.499Z,1011.96
2022-08-11T01:20:39.484Z,1011.97
2022-08-11T01:20:52.748Z,1011.94
2022-08-11T01:21:38.453Z,1011.95
2022-08-11T01:22:38.622Z,1011.97
2022-08-11T01:23:38.446Z,1011.95
2022-08-11T01:24:38.420Z,1011.94
2022-08-11T01:25:56.754Z,1011.96
2022-08-11T01:26:38.398Z,1011.94
2022-08-11T01:27:38.380Z,1011.92
2022-08-11T01:28:38.364Z,1011.96
2022-08-11T01:29:38.355Z,1011.95
2022-08-11T01:30:38.334Z,1011.93
2022-08-11T01:31:38.323Z,1011.97
2022-08-11T01:32:38.581Z,1011.96
2022-08-11T01:33:38.300Z,1011.95
2022-08-11T01:34:38.291Z,1011.95
2022-08-11T01:35:38.269Z,1011.96
2022-08-11T01:36:38.274Z,1011.96
2022-08-11T01:37:38.246Z,1011.99
2022-08-11T01:38:38.228Z,1011.94
2022-08-11T01:39:38.285Z,1011.92
2022-08-11T01:40:38.210Z,1011.95
2022-08-11T01:41:38.187Z,1011.96
2022-08-11T01:42:38.394Z,1011.95
2022-08-11T01:43:38.158Z,1011.95
2022-08-11T01:44:38.157Z,1011.92
2022-08-11T01:45:38.133Z,1011.92
2022-08-11T01:46:38.122Z,1011.95
2022-08-11T01:47:38.111Z,1011.92
2022-08-11T01:48:38.116Z,1011.92
2022-08-11T01:50:09.886Z,1011.92
2022-08-11T01:50:38.075Z,1011.95
2022-08-11T01:51:41.985Z,1011.94
2022-08-11T01:52:38.062Z,1011.96
2022-08-11T01:53:38.028Z,1011.97
2022-08-11T01:54:38.011Z,1011.99
2022-08-11T01:55:38.001Z,1011.95
2022-08-11T01:56:37.986Z,1011.97
2022-08-11T01:57:37.978Z,1011.99
2022-08-11T01:58:43.561Z,1011.97
2022-08-11T01:59:37.960Z,1012.01
2022-08-11T02:00:37.972Z,1012.01
2022-08-11T02:01:37.922Z,1012.02
2022-08-11T02:02:38.008Z,1012.02
2022-08-11T02:03:37.895Z,1012.03
2022-08-11T02:04:37.876Z,1012.07
2022-08-11T02:05:37.882Z,1012.04
2022-08-11T02:06:37.864Z,1012.04
2022-08-11T02:07:37.847Z,1012.06
2022-08-11T02:08:39.657Z,1012.05
2022-08-11T02:09:37.819Z,1012.06
2022-08-11T02:10:38.399Z,1012.08
2022-08-11T02:11:37.814Z,1012.06
2022-08-11T02:12:38.044Z,1012.05
2022-08-11T02:13:37.758Z,1012.03
2022-08-11T02:14:37.746Z,1012.05
2022-08-11T02:15:37.730Z,1012.03
2022-08-11T02:16:37.716Z,1012.06
2022-08-11T02:17:37.716Z,1012.02
2022-08-11T02:18:37.689Z,1012.01
2022-08-11T02:19:37.702Z,1012.03
2022-08-11T02:20:37.662Z,1012.02
2022-08-11T02:21:37.654Z,1012.04
2022-08-11T02:22:37.734Z,1012.06
2022-08-11T02:24:05.836Z,1012.02
2022-08-11T02:24:37.638Z,1012.03
2022-08-11T02:25:37.594Z,1012.04
2022-08-11T02:26:37.585Z,1012.06
2022-08-11T02:27:37.570Z,1012.03
2022-08-11T02:28:40.352Z,1012.02
2022-08-11T02:29:37.551Z,1012.07
2022-08-11T02:30:37.543Z,1012.03
2022-08-11T02:32:24.539Z,1012.05
2022-08-11T02:32:37.874Z,1012.08
2022-08-11T02:33:37.492Z,1012.07
2022-08-11T02:34:37.478Z,1012.05
2022-08-11T02:35:37.475Z,1012.06
2022-08-11T02:36:37.452Z,1012.04
2022-08-11T02:37:37.445Z,1012.00
2022-08-11T02:38:37.418Z,1012.03
2022-08-11T02:39:37.507Z,1011.99
2022-08-11T02:40:37.394Z,1011.98
2022-08-11T02:41:37.391Z,1011.98
2022-08-11T02:42:37.377Z,1011.95
2022-08-11T02:43:37.354Z,1011.99
2022-08-11T02:44:37.344Z,1011.96
2022-08-11T02:45:37.330Z,1011.93
2022-08-11T02:46:37.329Z,1011.94
2022-08-11T02:47:37.307Z,1011.95
2022-08-11T02:48:37.302Z,1011.98
2022-08-11T02:49:37.272Z,1011.98
2022-08-11T02:50:37.269Z,1012.01
2022-08-11T02:51:37.247Z,1011.98
2022-08-11T02:52:37.444Z,1012.01
2022-08-11T02:53:37.231Z,1012.00
2022-08-11T02:54:37.206Z,1012.00
2022-08-11T02:55:56.614Z,1012.01
2022-08-11T02:56:37.187Z,1012.01
2022-08-11T02:57:37.176Z,1012.02
2022-08-11T02:58:37.173Z,1012.00
2022-08-11T02:59:37.143Z,1012.02
2022-08-11T03:00:37.130Z,1011.99
2022-08-11T03:01:37.200Z,1012.01
2022-08-11T03:02:37.291Z,1011.99
2022-08-11T03:03:37.097Z,1012.02
2022-08-11T03:04:37.885Z,1012.03
2022-08-11T03:05:37.059Z,1012.02
2022-08-11T03:06:37.051Z,1012.03
2022-08-11T03:07:37.037Z,1012.02
2022-08-11T03:08:37.027Z,1012.02
2022-08-11T03:09:37.025Z,1012.00
2022-08-11T03:10:36.995Z,1012.00
2022-08-11T03:11:37.006Z,1011.96
2022-08-11T03:12:37.167Z,1012.01
2022-08-11T03:13:36.954Z,1012.01
2022-08-11T03:14:36.939Z,1012.01
2022-08-11T03:15:36.938Z,1012.00
2022-08-11T03:16:36.917Z,1011.99
2022-08-11T03:17:36.905Z,1012.00
2022-08-11T03:18:36.893Z,1011.97
2022-08-11T03:19:36.870Z,1011.97
2022-08-11T03:20:37.955Z,1011.97
2022-08-11T03:21:52.365Z,1012.00
2022-08-11T03:22:37.028Z,1011.95
2022-08-11T03:23:36.826Z,1011.98
2022-08-11T03:24:36.805Z,1012.01
2022-08-11T03:25:36.795Z,1011.99
2022-08-11T03:26:36.793Z,1011.98
2022-08-11T03:27:36.791Z,1012.00
2022-08-11T03:28:36.753Z,1012.01
2022-08-11T03:29:36.753Z,1011.99
2022-08-11T03:30:36.724Z,1011.97
2022-08-11T03:31:36.728Z,1011.95
2022-08-11T03:32:36.964Z,1011.95
2022-08-11T03:33:36.685Z,1011.94
2022-08-11T03:34:36.676Z,1011.94
2022-08-11T03:35:36.657Z,1011.93
2022-08-11T03:36:55.715Z,1011.89
2022-08-11T03:37:36.642Z,1011.91
2022-08-11T03:38:36.627Z,1011.89
2022-08-11T03:39:36.666Z,1011.92
2022-08-11T03:40:36.592Z,1011.89
2022-08-11T03:42:01.754Z,1011.87
2022-08-11T03:42:36.742Z,1011.87
2022-08-11T03:43:36.579Z,1011.90
2022-08-11T03:44:36.541Z,1011.90
2022-08-11T03:45:40.967Z,1011.92
2022-08-11T03:46:36.509Z,1011.87
2022-08-11T03:47:36.500Z,1011.89
2022-08-11T03:48:36.491Z,1011.90
2022-08-11T03:49:36.482Z,1011.91
2022-08-11T03:50:36.462Z,1011.93
2022-08-11T03:51:51.421Z,1011.86
2022-08-11T03:52:36.573Z,1011.88
2022-08-11T03:53:36.419Z,1011.90
2022-08-11T03:54:36.431Z,1011.86
2022-08-11T03:55:36.395Z,1011.87
2022-08-11T03:56:36.376Z,1011.89
2022-08-11T03:57:36.367Z,1011.89
2022-08-11T03:58:41.559Z,1011.88
2022-08-11T03:59:36.346Z,1011.90
2022-08-11T04:00:36.347Z,1011.90
2022-08-11T04:01:36.361Z,1011.88
2022-08-11T04:02:36.585Z,1011.92
2022-08-11T04:03:36.292Z,1011.87
2022-08-11T04:04:36.269Z,1011.87
2022-08-11T04:05:36.261Z,1011.90
2022-08-11T04:06:36.257Z,1011.85
2022-08-11T04:07:36.252Z,1011.87
2022-08-11T04:08:36.225Z,1011.87
2022-08-11T04:09:36.203Z,1011.90
2022-08-11T04:10:36.192Z,1011.92
2022-08-11T04:11:36.177Z,1011.93
2022-08-11T04:12:37.091Z,1011.92
2022-08-11T04:13:36.172Z,1011.94
2022-08-11T04:14:36.135Z,1011.91
2022-08-11T04:15:36.134Z,1011.92
2022-08-11T04:16:36.108Z,1011.90
2022-08-11T04:17:36.105Z,1011.97
2022-08-11T04:18:36.093Z,1011.95
2022-08-11T04:19:36.079Z,1011.95
2022-08-11T04:20:36.069Z,1011.95
2022-08-11T04:21:36.048Z,1011.95
2022-08-11T04:22:36.092Z,1011.94
2022-08-11T04:24:13.005Z,1011.93
2022-08-11T04:24:39.988Z,1011.94
2022-08-11T04:25:57.940Z,1011.96
2022-08-11T04:26:35.982Z,1011.93
2022-08-11T04:27:37.321Z,1011.92
2022-08-11T04:28:43.116Z,1011.97
2022-08-11T04:30:02.977Z,1011.98
2022-08-11T04:30:40.576Z,1011.89
2022-08-11T04:31:50.589Z,1011.97
2022-08-11T04:32:36.102Z,1011.92
2022-08-11T04:33:35.892Z,1011.93
2022-08-11T04:34:35.884Z,1011.94
2022-08-11T04:35:35.855Z,1011.92
2022-08-11T04:36:35.842Z,1011.95
2022-08-11T04:37:35.832Z,1011.95
2022-08-11T04:38:35.825Z,1011.93
2022-08-11T04:39:35.861Z,1011.92
2022-08-11T04:40:35.787Z,1011.92
2022-08-11T04:41:35.773Z,1011.88
2022-08-11T04:42:35.785Z,1011.84
2022-08-11T04:43:35.752Z,1011.85
2022-08-11T04:44:35.755Z,1011.87
2022-08-11T04:45:35.725Z,1011.87
2022-08-11T04:46:35.715Z,1011.86
2022-08-11T04:48:04.175Z,1011.81
2022-08-11T04:48:35.701Z,1011.80
2022-08-11T04:49:35.672Z,1011.83
2022-08-11T04:50:35.669Z,1011.84
2022-08-11T04:51:35.639Z,1011.90
2022-08-11T04:52:37.941Z,1011.86
2022-08-11T04:53:35.619Z,1011.88
2022-08-11T04:54:35.602Z,1011.93
2022-08-11T04:55:37.724Z,1011.90
2022-08-11T04:56:35.573Z,1011.89
2022-08-11T04:57:35.566Z,1011.90
2022-08-11T04:58:35.551Z,1011.94
2022-08-11T04:59:35.539Z,1011.94
2022-08-11T05:00:35.521Z,1011.97
2022-08-11T05:01:37.618Z,1011.95
2022-08-11T05:02:35.493Z,1011.92
2022-08-11T05:03:35.484Z,1011.91
2022-08-11T05:04:35.469Z,1011.97
2022-08-11T05:05:35.454Z,1011.94
2022-08-11T05:06:35.468Z,1011.89
2022-08-11T05:07:35.424Z,1011.93
2022-08-11T05:08:35.422Z,1011.91
2022-08-11T05:09:35.398Z,1011.94
2022-08-11T05:10:42.985Z,1012.00
2022-08-11T05:11:35.385Z,1011.99
2022-08-11T05:12:35.379Z,1012.02
2022-08-11T05:13:35.350Z,1012.05
2022-08-11T05:14:35.339Z,1012.04
2022-08-11T05:15:43.050Z,1012.07
2022-08-11T05:16:35.315Z,1011.98
2022-08-11T05:17:35.297Z,1012.02
2022-08-11T05:18:35.288Z,1012.00
2022-08-11T05:19:35.271Z,1011.99
2022-08-11T05:20:35.251Z,1012.01
2022-08-11T05:21:44.786Z,1012.04
2022-08-11T05:22:35.237Z,1012.01
2022-08-11T05:23:35.242Z,1012.00
2022-08-11T05:24:35.198Z,1012.02
2022-08-11T05:26:43.865Z,1012.03
2022-08-11T05:26:50.387Z,1012.05
2022-08-11T05:27:35.159Z,1012.04
2022-08-11T05:28:35.171Z,1012.08
2022-08-11T05:29:35.138Z,1012.05
2022-08-11T05:30:35.129Z,1012.04
2022-08-11T05:31:35.105Z,1012.08
2022-08-11T05:32:35.104Z,1012.08
2022-08-11T05:33:35.081Z,1012.10
2022-08-11T05:34:35.082Z,1012.11
2022-08-11T05:36:00.347Z,1012.10
2022-08-11T05:36:35.053Z,1012.13
2022-08-11T05:37:35.026Z,1012.09
2022-08-11T05:38:35.015Z,1012.13
2022-08-11T05:39:36.918Z,1012.10
2022-08-11T05:40:34.985Z,1012.12
2022-08-11T05:41:34.986Z,1012.07
2022-08-11T05:42:34.957Z,1012.14
2022-08-11T05:43:34.948Z,1012.11
2022-08-11T05:44:34.947Z,1012.12
2022-08-11T05:46:02.885Z,1012.13
2022-08-11T05:46:34.925Z,1012.14
2022-08-11T05:47:34.891Z,1012.15
2022-08-11T05:48:34.886Z,1012.12
2022-08-11T05:49:34.863Z,1012.07
2022-08-11T05:50:34.867Z,1012.09
2022-08-11T05:51:34.837Z,1012.16
2022-08-11T05:52:34.872Z,1012.14
2022-08-11T05:53:40.292Z,1012.13
2022-08-11T05:54:34.809Z,1012.12
2022-08-11T05:55:34.793Z,1012.13
2022-08-11T05:56:34.770Z,1012.11
2022-08-11T05:57:39.532Z,1012.09
2022-08-11T05:58:39.551Z,1012.10
2022-08-11T05:59:34.737Z,1012.13
2022-08-11T06:00:34.726Z,1012.13
2022-08-11T06:01:34.800Z,1012.16
2022-08-11T06:02:34.699Z,1012.17
2022-08-11T06:03:34.715Z,1012.15
2022-08-11T06:04:34.690Z,1012.16
2022-08-11T06:05:38.554Z,1012.13
2022-08-11T06:06:34.645Z,1012.14
2022-08-11T06:07:49.732Z,1012.17
2022-08-11T06:08:34.632Z,1012.15
2022-08-11T06:09:34.609Z,1012.12
2022-08-11T06:10:34.601Z,1012.16
2022-08-11T06:11:44.027Z,1012.18
2022-08-11T06:12:34.569Z,1012.16
2022-08-11T06:13:34.562Z,1012.21
2022-08-11T06:14:34.544Z,1012.19
2022-08-11T06:15:34.530Z,1012.19
2022-08-11T06:16:34.525Z,1012.20
2022-08-11T06:17:39.008Z,1012.21
2022-08-11T06:18:34.475Z,1012.24
2022-08-11T06:19:34.465Z,1012.20
2022-08-11T06:20:34.449Z,1012.21
2022-08-11T06:21:34.439Z,1012.19
2022-08-11T06:22:34.439Z,1012.16
2022-08-11T06:23:36.241Z,1012.14
2022-08-11T06:24:34.393Z,1012.18
2022-08-11T06:25:34.397Z,1012.16
2022-08-11T06:26:44.843Z,1012.14
2022-08-11T06:27:34.363Z,1012.17
2022-08-11T06:28:34.362Z,1012.20
2022-08-11T06:29:37.998Z,1012.18
2022-08-11T06:30:34.321Z,1012.12
2022-08-11T06:31:34.300Z,1012.11
2022-08-11T06:32:34.291Z,1012.12
2022-08-11T06:33:34.275Z,1012.12
2022-08-11T06:34:34.274Z,1012.11
2022-08-11T06:35:34.256Z,1012.11
2022-08-11T06:36:34.245Z,1012.07
2022-08-11T06:37:36.519Z,1012.08
2022-08-11T06:38:34.207Z,1012.13
2022-08-11T06:39:34.283Z,1012.08
2022-08-11T06:40:34.184Z,1012.10
2022-08-11T06:41:34.197Z,1012.09
2022-08-11T06:42:34.158Z,1012.12
2022-08-11T06:43:34.142Z,1012.10
2022-08-11T06:44:34.123Z,1012.11
2022-08-11T06:45:34.119Z,1012.09
2022-08-11T06:46:34.098Z,1012.10
2022-08-11T06:47:34.100Z,1012.10
2022-08-11T06:48:34.083Z,1012.12
2022-08-11T06:49:34.077Z,1012.13
2022-08-11T06:50:34.049Z,1012.11
2022-08-11T06:51:34.031Z,1012.10
2022-08-11T06:52:35.584Z,1012.10
2022-08-11T06:53:34.009Z,1012.11
2022-08-11T06:54:33.990Z,1012.12
2022-08-11T06:55:57.141Z,1012.11
2022-08-11T06:56:33.969Z,1012.10
2022-08-11T06:57:33.957Z,1012.11
2022-08-11T06:58:33.953Z,1012.13
2022-08-11T06:59:33.928Z,1012.11
2022-08-11T07:00:33.911Z,1012.10
2022-08-11T07:01:33.987Z,1012.11
2022-08-11T07:02:34.242Z,1012.12
2022-08-11T07:03:33.888Z,1012.14
2022-08-11T07:04:33.868Z,1012.15
2022-08-11T07:05:33.842Z,1012.18
2022-08-11T07:06:41.682Z,1012.15
2022-08-11T07:07:33.822Z,1012.19
2022-08-11T07:08:35.845Z,1012.15
2022-08-11T07:09:33.809Z,1012.19
2022-08-11T07:10:33.787Z,1012.16
2022-08-11T07:11:33.763Z,1012.17
2022-08-11T07:12:33.768Z,1012.15
2022-08-11T07:13:44.626Z,1012.13
2022-08-11T07:14:38.215Z,1012.14
2022-08-11T07:16:11.628Z,1012.11
2022-08-11T07:16:33.709Z,1012.15
2022-08-11T07:17:33.691Z,1012.14
2022-08-11T07:18:33.675Z,1012.13
2022-08-11T07:19:33.656Z,1012.10
2022-08-11T07:20:33.658Z,1012.15
2022-08-11T07:22:00.320Z,1012.17
2022-08-11T07:22:33.705Z,1012.15
2022-08-11T07:23:33.605Z,1012.17
2022-08-11T07:24:34.579Z,1012.17
2022-08-11T07:25:33.585Z,1012.16
2022-08-11T07:26:33.563Z,1012.16
2022-08-11T07:27:35.619Z,1012.14
2022-08-11T07:28:33.552Z,1012.18
2022-08-11T07:29:33.530Z,1012.20
2022-08-11T07:30:33.508Z,1012.17
2022-08-11T07:31:33.507Z,1012.18
2022-08-11T07:32:33.578Z,1012.15
2022-08-11T07:34:07.958Z,1012.17
2022-08-11T07:34:33.483Z,1012.14
2022-08-11T07:35:33.445Z,1012.14
2022-08-11T07:36:33.427Z,1012.12
2022-08-11T07:37:33.421Z,1012.13
2022-08-11T07:38:33.400Z,1012.10
2022-08-11T07:39:33.552Z,1012.13
2022-08-11T07:40:33.391Z,1012.10
2022-08-11T07:41:33.372Z,1012.16
2022-08-11T07:42:33.414Z,1012.13
2022-08-11T07:43:33.335Z,1012.13
2022-08-11T07:44:35.362Z,1012.07
2022-08-11T07:45:33.304Z,1012.13
2022-08-11T07:46:33.300Z,1012.09
2022-08-11T07:47:33.280Z,1012.09
2022-08-11T07:48:33.268Z,1012.10
2022-08-11T07:49:33.259Z,1012.11
2022-08-11T07:50:33.261Z,1012.08
2022-08-11T07:51:33.232Z,1012.08
2022-08-11T07:52:33.241Z,1012.10
2022-08-11T07:53:33.206Z,1012.07
2022-08-11T07:54:33.583Z,1012.05
2022-08-11T07:55:51.855Z,1012.07
2022-08-11T07:56:54.294Z,1012.06
2022-08-11T07:57:42.969Z,1012.06
2022-08-11T07:58:36.755Z,1012.06
2022-08-11T08:00:00.490Z,1012.07
2022-08-11T08:00:33.137Z,1012.08
2022-08-11T08:01:33.157Z,1012.08
2022-08-11T08:02:33.156Z,1012.07
2022-08-11T08:03:33.071Z,1012.06
2022-08-11T08:04:33.054Z,1012.05
2022-08-11T08:05:33.045Z,1012.07
2022-08-11T08:06:36.160Z,1012.04
2022-08-11T08:07:34.028Z,1012.04
2022-08-11T08:08:32.998Z,1012.05
2022-08-11T08:09:32.990Z,1012.05
2022-08-11T08:10:32.980Z,1012.03
2022-08-11T08:11:32.964Z,1012.03
2022-08-11T08:12:33.034Z,1012.06
2022-08-11T08:13:32.938Z,1012.05
2022-08-11T08:14:32.924Z,1012.04
2022-08-11T08:15:32.910Z,1012.05
2022-08-11T08:16:32.908Z,1012.08
2022-08-11T08:17:32.986Z,1012.08
2022-08-11T08:18:32.876Z,1012.05
2022-08-11T08:19:32.857Z,1012.09
2022-08-11T08:20:32.841Z,1012.04
2022-08-11T08:21:32.842Z,1012.09
2022-08-11T08:22:38.900Z,1012.07
2022-08-11T08:23:33.062Z,1012.09
2022-08-11T08:24:32.786Z,1012.09
2022-08-11T08:25:32.775Z,1012.11
2022-08-11T08:26:32.761Z,1012.12
2022-08-11T08:27:32.751Z,1012.10
2022-08-11T08:28:32.961Z,1012.10
2022-08-11T08:29:32.740Z,1012.10
2022-08-11T08:30:32.708Z,1012.11
2022-08-11T08:31:32.692Z,1012.14
2022-08-11T08:32:32.798Z,1012.11
2022-08-11T08:33:32.663Z,1012.15
2022-08-11T08:34:33.611Z,1012.09
2022-08-11T08:35:33.255Z,1012.09
2022-08-11T08:36:32.627Z,1012.07
2022-08-11T08:37:47.345Z,1012.09
2022-08-11T08:38:32.607Z,1012.12
2022-08-11T08:39:32.669Z,1012.10
2022-08-11T08:40:32.571Z,1012.12
2022-08-11T08:41:32.583Z,1012.10
2022-08-11T08:42:32.689Z,1012.15
2022-08-11T08:43:32.594Z,1012.16
2022-08-11T08:44:39.169Z,1012.15
2022-08-11T08:45:32.512Z,1012.17
2022-08-11T08:46:32.497Z,1012.16
2022-08-11T08:47:41.677Z,1012.11
2022-08-11T08:48:32.467Z,1012.14
2022-08-11T08:49:32.456Z,1012.12
2022-08-11T08:50:32.440Z,1012.13
2022-08-11T08:52:01.493Z,1012.15
2022-08-11T08:52:35.937Z,1012.16
2022-08-11T08:53:32.428Z,1012.15
2022-08-11T08:54:32.387Z,1012.19
2022-08-11T08:55:32.372Z,1012.16
2022-08-11T08:56:32.358Z,1012.15
2022-08-11T08:57:32.343Z,1012.11
2022-08-11T08:58:32.338Z,1012.12
2022-08-11T08:59:47.698Z,1012.13
2022-08-11T09:00:32.313Z,1012.11
2022-08-11T09:01:32.359Z,1012.09
2022-08-11T09:02:34.630Z,1012.06
2022-08-11T09:04:04.832Z,1012.07
2022-08-11T09:04:32.272Z,1012.05
2022-08-11T09:05:32.241Z,1012.13
2022-08-11T09:06:32.221Z,1012.12
2022-08-11T09:07:38.989Z,1012.05
2022-08-11T09:08:32.198Z,1012.11
2022-08-11T09:09:32.194Z,1012.07
2022-08-11T09:10:32.169Z,1012.07
2022-08-11T09:11:32.168Z,1012.03
2022-08-11T09:12:36.565Z,1012.08
2022-08-11T09:13:32.142Z,1012.01
2022-08-11T09:14:32.114Z,1012.05
2022-08-11T09:15:32.117Z,1012.03
2022-08-11T09:16:32.103Z,1012.04
2022-08-11T09:17:32.102Z,1012.04
2022-08-11T09:18:33.839Z,1012.07
2022-08-11T09:19:32.051Z,1012.07
2022-08-11T09:20:32.036Z,1012.09
2022-08-11T09:21:46.291Z,1012.00
2022-08-11T09:22:32.023Z,1012.02
2022-08-11T09:24:31.990Z,1012.01
2022-08-11T09:25:31.967Z,1011.92
2022-08-11T09:26:31.976Z,1011.97
2022-08-11T09:27:31.939Z,1011.95
2022-08-11T09:28:31.933Z,1011.96
2022-08-11T09:29:31.931Z,1011.90
2022-08-11T09:30:31.915Z,1011.94
2022-08-11T09:31:35.676Z,1011.96
2022-08-11T09:32:31.893Z,1011.96
2022-08-11T09:33:31.859Z,1011.95
2022-08-11T09:34:31.870Z,1011.98
2022-08-11T09:35:31.835Z,1011.92
2022-08-11T09:36:31.831Z,1011.95
2022-08-11T09:37:54.104Z,1011.96
2022-08-11T09:38:31.806Z,1011.89
2022-08-11T09:39:31.841Z,1011.93
2022-08-11T09:40:32.571Z,1011.90
2022-08-11T09:41:55.588Z,1011.90
2022-08-11T09:42:31.743Z,1011.88
2022-08-11T09:43:31.729Z,1011.88
2022-08-11T09:44:31.711Z,1011.92
2022-08-11T09:45:39.959Z,1011.91
2022-08-11T09:46:31.689Z,1011.90
2022-08-11T09:47:31.686Z,1011.91
2022-08-11T09:48:31.658Z,1011.88
2022-08-11T09:49:31.649Z,1011.88
2022-08-11T09:50:31.641Z,1011.85
2022-08-11T09:51:31.717Z,1011.88
2022-08-11T09:52:31.604Z,1011.86
2022-08-11T09:53:36.681Z,1011.84
2022-08-11T09:54:31.581Z,1011.81
2022-08-11T09:55:31.581Z,1011.80
2022-08-11T09:56:31.559Z,1011.82
2022-08-11T09:57:31.555Z,1011.83
2022-08-11T09:58:42.281Z,1011.83
2022-08-11T09:59:31.517Z,1011.83
2022-08-11T10:00:31.510Z,1011.81
2022-08-11T10:01:31.600Z,1011.83
2022-08-11T10:02:31.474Z,1011.86
2022-08-11T10:03:31.480Z,1011.81
2022-08-11T10:04:31.448Z,1011.74
2022-08-11T10:05:31.433Z,1011.80
2022-08-11T10:06:34.097Z,1011.77
2022-08-11T10:07:31.408Z,1011.77
2022-08-11T10:08:31.394Z,1011.71
2022-08-11T10:09:31.395Z,1011.72
2022-08-11T10:10:31.362Z,1011.70
2022-08-11T10:11:31.354Z,1011.70
2022-08-11T10:12:31.361Z,1011.72
2022-08-11T10:14:32.051Z,1011.64
2022-08-11T10:14:44.024Z,1011.69
2022-08-11T10:15:31.301Z,1011.73
2022-08-11T10:16:31.288Z,1011.68
2022-08-11T10:17:31.270Z,1011.65
2022-08-11T10:18:31.275Z,1011.65
2022-08-11T10:19:31.252Z,1011.65
2022-08-11T10:20:31.240Z,1011.60
2022-08-11T10:21:31.218Z,1011.60
2022-08-11T10:22:32.837Z,1011.55
2022-08-11T10:23:31.190Z,1011.57
2022-08-11T10:24:31.192Z,1011.55
2022-08-11T10:25:31.162Z,1011.58
2022-08-11T10:26:32.014Z,1011.59
2022-08-11T10:28:09.022Z,1011.58
2022-08-11T10:28:55.959Z,1011.59
2022-08-11T10:29:36.824Z,1011.52
2022-08-11T10:30:31.105Z,1011.55
2022-08-11T10:31:38.961Z,1011.58
2022-08-11T10:32:31.476Z,1011.58
2022-08-11T10:33:36.946Z,1011.56
2022-08-11T10:34:31.044Z,1011.56
2022-08-11T10:35:31.043Z,1011.53
2022-08-11T10:36:31.013Z,1011.56
2022-08-11T10:38:06.077Z,1011.55
2022-08-11T10:38:31.015Z,1011.50
2022-08-11T10:39:31.029Z,1011.46
2022-08-11T10:40:30.975Z,1011.45
2022-08-11T10:41:30.951Z,1011.51
2022-08-11T10:42:48.215Z,1011.47
2022-08-11T10:44:02.599Z,1011.48
2022-08-11T10:44:30.927Z,1011.46
2022-08-11T10:45:30.898Z,1011.44
2022-08-11T10:46:30.923Z,1011.48
2022-08-11T10:47:30.872Z,1011.44
2022-08-11T10:48:30.855Z,1011.43
2022-08-11T10:49:30.846Z,1011.45
2022-08-11T10:50:30.832Z,1011.41
2022-08-11T10:51:51.141Z,1011.33
2022-08-11T10:52:30.817Z,1011.31
2022-08-11T10:53:30.789Z,1011.26
2022-08-11T10:54:30.786Z,1011.29
2022-08-11T10:55:30.774Z,1011.34
2022-08-11T10:56:30.743Z,1011.33
2022-08-11T10:57:30.737Z,1011.32
2022-08-11T10:58:30.720Z,1011.35
2022-08-11T10:59:30.728Z,1011.36
2022-08-11T11:00:30.695Z,1011.25
2022-08-11T11:01:30.721Z,1011.33
2022-08-11T11:02:30.664Z,1011.34
2022-08-11T11:03:30.667Z,1011.32
2022-08-11T11:04:31.153Z,1011.36
2022-08-11T11:05:30.641Z,1011.32
2022-08-11T11:06:30.618Z,1011.28
2022-08-11T11:07:30.600Z,1011.24
2022-08-11T11:08:30.589Z,1011.26
2022-08-11T11:09:30.571Z,1011.27
2022-08-11T11:10:30.581Z,1011.23
2022-08-11T11:11:30.555Z,1011.31
2022-08-11T11:12:30.535Z,1011.27
2022-08-11T11:13:30.520Z,1011.17
2022-08-11T11:14:30.514Z,1011.17
2022-08-11T11:15:30.491Z,1011.18
2022-08-11T11:16:30.505Z,1011.09
2022-08-11T11:17:30.466Z,1011.12
2022-08-11T11:18:30.454Z,1011.07
2022-08-11T11:19:30.437Z,1011.00
2022-08-11T11:20:36.078Z,1011.00
2022-08-11T11:21:30.415Z,1010.98
2022-08-11T11:22:30.414Z,1011.08
2022-08-11T11:23:30.386Z,1011.03
2022-08-11T11:24:30.370Z,1011.02
2022-08-11T11:25:30.363Z,1011.03
2022-08-11T11:26:30.342Z,1011.05
2022-08-11T11:27:30.357Z,1011.05
2022-08-11T11:28:30.401Z,1011.05
2022-08-11T11:29:30.336Z,1011.01
2022-08-11T11:30:30.291Z,1011.02
2022-08-11T11:31:30.289Z,1011.04
2022-08-11T11:32:30.312Z,1010.99
2022-08-11T11:33:30.254Z,1010.94
2022-08-11T11:34:30.271Z,1010.90
2022-08-11T11:35:30.226Z,1011.00
2022-08-11T11:36:30.209Z,1010.96
2022-08-11T11:37:30.232Z,1010.96
2022-08-11T11:38:30.180Z,1010.95
2022-08-11T11:39:30.239Z,1010.92
2022-08-11T11:40:31.420Z,1010.95
2022-08-11T11:41:30.161Z,1010.92
2022-08-11T11:42:30.229Z,1010.92
2022-08-11T11:43:30.113Z,1010.90
2022-08-11T11:44:30.106Z,1010.89
2022-08-11T11:45:30.093Z,1010.85
2022-08-11T11:46:30.456Z,1010.91
2022-08-11T11:47:30.097Z,1010.85
2022-08-11T11:48:30.061Z,1010.86
2022-08-11T11:49:30.067Z,1010.86
2022-08-11T11:50:31.830Z,1010.86
2022-08-11T11:51:30.013Z,1010.86
2022-08-11T11:52:30.054Z,1010.85
2022-08-11T11:53:30.003Z,1010.88
2022-08-11T11:54:29.969Z,1010.79
2022-08-11T11:55:29.982Z,1010.83
2022-08-11T11:56:29.949Z,1010.79
2022-08-11T11:57:29.995Z,1010.79
2022-08-11T11:58:29.919Z,1010.72
2022-08-11T11:59:29.905Z,1010.77
2022-08-11T12:00:33.082Z,1010.72
2022-08-11T12:01:29.892Z,1010.74
2022-08-11T12:02:29.875Z,1010.68
2022-08-11T12:03:29.919Z,1010.66
2022-08-11T12:04:29.832Z,1010.65
2022-08-11T12:05:29.872Z,1010.69
2022-08-11T12:06:29.816Z,1010.73